EGCC/MAN METAR and TAF weather

Enter ICAO airport designator
Station Type Date Time Source
EGCC METAR 2019/08/19 08:20 UTC NOAA

EGCC 190820Z 25011KT 9999 FEW016 16/11 Q1010


Station Type Date Time Source
EGCC Decoded METAR 2019/08/19 08:20 UTC NOAA

Station name not available
Aug 19, 2019 - 04:20 AM EDT / 2019.08.19 0820 UTC
Wind: from the WSW (250 degrees) at 13 MPH (11 KT):0
Visibility: greater than 7 mile(s):0
Sky conditions: mostly clear
Temperature: 60 F (16 C)
Dew Point: 51 F (11 C)
Relative Humidity: 72%
Pressure (altimeter): 29.83 in. Hg (1010 hPa)
ob: EGCC 190820Z 25011KT 9999 FEW016 16/11 Q1010
cycle: 8

Station Type Date Time Source
EGCC TAF 2019/08/19 06:09 UTC NOAA

TAF EGCC 190458Z 1906/2012 25010KT 9999 SCT035 PROB30
TEMPO 1908/1919 4000 +SHRA
BECMG 1921/1924 19005KT
BECMG 2005/2008 26010KT PROB40
TEMPO 2005/2009 6000 SHRA

Example: see airport list